Time;durP1;ratioP1;P1;durP2;ratioP2;P2;SDS_P1;SDS_P2;PMS_P1;PMS_P2;Temp;Humidity;BMP_temperature;BMP_pressure;BME280_temperature;BME280_humidity;BME280_pressure;Samples;Min_cycle;Max_cycle;Signal;HPM_P1;HPM_P2
2022/08/07 00:00:05;;;;;;;5.78;2.90;;;;;;;;;;5035327;28;96565;-76
2022/08/07 00:02:32;;;;;;;5.80;2.88;;;;;;;;;;5034778;27;97730;-75
2022/08/07 00:05:07;;;;;;;4.55;2.53;;;;;;;;;;5039091;27;96235;-75
2022/08/07 00:07:33;;;;;;;4.32;2.70;;;;;;;;;;5031011;28;96675;-76
2022/08/07 00:10:06;;;;;;;6.47;3.00;;;;;;;;;;5032404;28;97378;-74
2022/08/07 00:12:52;;;;;;;6.50;2.40;;;;;;;;;;5036913;27;95187;-75
2022/08/07 00:15:25;;;;;;;5.28;2.72;;;;;;;;;;5032263;27;96647;-75
2022/08/07 00:18:04;;;;;;;4.18;2.63;;;;;;;;;;5021123;27;97359;-75
2022/08/07 00:20:30;;;;;;;6.38;2.67;;;;;;;;;;5034490;27;95409;-74
2022/08/07 00:23:01;;;;;;;6.93;2.63;;;;;;;;;;5039631;27;98310;-74
2022/08/07 00:25:27;;;;;;;5.45;2.60;;;;;;;;;;5032040;27;95339;-74
2022/08/07 00:28:02;;;;;;;3.85;2.58;;;;;;;;;;5011227;28;97133;-74
2022/08/07 00:30:30;;;;;;;5.00;2.72;;;;;;;;;;5009907;27;97741;-74
2022/08/07 00:32:57;;;;;;;7.80;2.78;;;;;;;;;;5029324;27;97309;-75
2022/08/07 00:35:24;;;;;;;4.60;2.70;;;;;;;;;;5031525;28;97202;-75
2022/08/07 00:37:51;;;;;;;7.05;2.55;;;;;;;;;;5034334;27;97568;-75
2022/08/07 00:40:18;;;;;;;6.07;3.03;;;;;;;;;;5045930;27;95419;-78
2022/08/07 00:43:05;;;;;;;3.90;2.25;;;;;;;;;;5037677;27;98114;-74
2022/08/07 00:45:36;;;;;;;5.23;2.90;;;;;;;;;;5034773;28;95400;-76
2022/08/07 00:48:02;;;;;;;4.35;2.50;;;;;;;;;;5033988;28;97252;-75
2022/08/07 00:50:36;;;;;;;4.47;2.42;;;;;;;;;;5034331;28;97429;-74
2022/08/07 00:53:16;;;;;;;4.97;2.42;;;;;;;;;;5030393;27;95113;-79
2022/08/07 00:55:46;;;;;;;4.70;2.25;;;;;;;;;;5034567;28;97064;-75
2022/08/07 00:58:28;;;;;;;5.97;2.70;;;;;;;;;;5033925;28;96916;-75
2022/08/07 01:00:55;;;;;;;4.25;2.30;;;;;;;;;;5038674;27;95556;-74
2022/08/07 01:03:21;;;;;;;5.80;2.70;;;;;;;;;;5032203;27;96919;-75
2022/08/07 01:06:08;;;;;;;4.78;2.38;;;;;;;;;;5037380;28;98780;-74
2022/08/07 01:08:38;;;;;;;6.88;2.75;;;;;;;;;;5043091;27;97240;-79
2022/08/07 01:11:16;;;;;;;4.88;2.47;;;;;;;;;;5054730;27;97140;-74
2022/08/07 01:14:03;;;;;;;5.63;2.70;;;;;;;;;;5018030;27;97195;-74
2022/08/07 01:16:30;;;;;;;4.30;2.63;;;;;;;;;;4996091;28;96822;-75
2022/08/07 01:18:57;;;;;;;5.18;2.75;;;;;;;;;;5018817;28;97466;-76
2022/08/07 01:21:24;;;;;;;4.25;2.50;;;;;;;;;;5034394;28;96845;-75
2022/08/07 01:23:53;;;;;;;3.92;2.65;;;;;;;;;;5029434;27;96871;-74
2022/08/07 01:26:21;;;;;;;3.60;2.28;;;;;;;;;;5032615;28;97726;-74
2022/08/07 01:28:52;;;;;;;6.32;2.67;;;;;;;;;;5037192;28;95190;-75
2022/08/07 01:31:19;;;;;;;4.63;2.50;;;;;;;;;;5020772;27;97402;-74
2022/08/07 01:33:46;;;;;;;4.53;2.30;;;;;;;;;;5039582;27;97204;-75
2022/08/07 01:36:23;;;;;;;5.07;2.25;;;;;;;;;;5033999;28;96820;-75
2022/08/07 01:38:59;;;;;;;3.95;2.30;;;;;;;;;;5043422;27;97296;-75
2022/08/07 01:41:26;;;;;;;11.82;2.95;;;;;;;;;;5036706;27;96363;-75
2022/08/07 01:43:52;;;;;;;5.60;2.40;;;;;;;;;;5025893;27;96920;-75
2022/08/07 01:46:19;;;;;;;16.83;2.50;;;;;;;;;;5033552;28;97211;-78
2022/08/07 01:48:47;;;;;;;5.47;2.35;;;;;;;;;;5033993;27;95350;-78
2022/08/07 01:51:17;;;;;;;4.20;2.53;;;;;;;;;;5046247;27;96798;-79
2022/08/07 01:54:07;;;;;;;4.80;2.50;;;;;;;;;;5037050;27;95345;-79
2022/08/07 01:56:49;;;;;;;5.25;2.20;;;;;;;;;;5033472;27;96636;-77
2022/08/07 01:59:18;;;;;;;3.03;2.00;;;;;;;;;;5035520;27;97285;-74
2022/08/07 02:01:50;;;;;;;5.30;2.40;;;;;;;;;;5033907;28;95326;-75
2022/08/07 02:04:40;;;;;;;3.88;2.33;;;;;;;;;;5028200;27;96720;-75
2022/08/07 02:07:24;;;;;;;4.45;2.58;;;;;;;;;;5050528;27;97552;-75
2022/08/07 02:10:11;;;;;;;3.60;2.13;;;;;;;;;;5053503;27;95236;-75
2022/08/07 02:12:41;;;;;;;4.05;2.30;;;;;;;;;;5053340;27;96820;-74
2022/08/07 02:15:12;;;;;;;4.68;2.40;;;;;;;;;;5020598;27;97347;-79
2022/08/07 02:17:39;;;;;;;3.92;2.17;;;;;;;;;;5046439;27;97010;-79
2022/08/07 02:20:15;;;;;;;8.18;2.88;;;;;;;;;;5032265;28;97366;-79
2022/08/07 02:22:45;;;;;;;3.15;2.20;;;;;;;;;;5034861;27;96823;-79
2022/08/07 02:25:13;;;;;;;4.35;2.50;;;;;;;;;;5035666;27;96812;-78
2022/08/07 02:27:44;;;;;;;4.80;2.67;;;;;;;;;;5026649;28;97326;-78
2022/08/07 02:30:18;;;;;;;4.18;2.40;;;;;;;;;;5039522;27;96117;-79
2022/08/07 02:32:45;;;;;;;7.80;3.03;;;;;;;;;;5053877;27;96875;-78
2022/08/07 02:35:33;;;;;;;4.53;2.78;;;;;;;;;;5035266;27;98629;-79
2022/08/07 02:38:21;;;;;;;3.72;2.28;;;;;;;;;;5030445;28;98776;-79
2022/08/07 02:40:54;;;;;;;4.28;2.35;;;;;;;;;;5032223;28;97377;-78
2022/08/07 02:43:21;;;;;;;6.35;2.45;;;;;;;;;;5033407;28;95458;-79
2022/08/07 02:45:48;;;;;;;11.38;2.08;;;;;;;;;;5018137;27;96187;-79
2022/08/07 02:48:27;;;;;;;3.38;2.30;;;;;;;;;;5029452;27;97288;-79
2022/08/07 02:50:54;;;;;;;4.10;2.38;;;;;;;;;;5032706;28;95221;-79
2022/08/07 02:53:23;;;;;;;4.03;2.13;;;;;;;;;;5032624;28;96702;-79
2022/08/07 02:55:55;;;;;;;3.92;2.30;;;;;;;;;;5031604;27;97176;-79
2022/08/07 02:58:31;;;;;;;3.13;2.05;;;;;;;;;;5034416;28;96472;-79
2022/08/07 03:00:59;;;;;;;3.20;2.10;;;;;;;;;;5030897;27;97476;-79
2022/08/07 03:03:29;;;;;;;4.97;2.35;;;;;;;;;;5051420;27;95356;-78
2022/08/07 03:06:16;;;;;;;4.07;2.25;;;;;;;;;;5024443;27;96749;-75
2022/08/07 03:08:58;;;;;;;3.67;2.13;;;;;;;;;;5031272;28;97303;-78
2022/08/07 03:11:25;;;;;;;4.90;2.40;;;;;;;;;;5032537;28;95324;-78
2022/08/07 03:13:53;;;;;;;5.30;2.60;;;;;;;;;;5032402;28;96773;-79
2022/08/07 03:16:27;;;;;;;4.20;2.20;;;;;;;;;;5030560;27;97660;-77
2022/08/07 03:18:56;;;;;;;3.90;2.33;;;;;;;;;;5024355;27;96709;-79
2022/08/07 03:21:23;;;;;;;4.47;2.80;;;;;;;;;;5035310;28;95920;-79
2022/08/07 03:23:53;;;;;;;6.25;2.50;;;;;;;;;;5032231;27;95483;-78
2022/08/07 03:26:39;;;;;;;4.72;2.90;;;;;;;;;;5033117;27;97758;-78
2022/08/07 03:29:19;;;;;;;4.78;3.20;;;;;;;;;;5030725;28;97597;-77
2022/08/07 03:31:47;;;;;;;4.85;2.60;;;;;;;;;;5037379;27;96065;-78
2022/08/07 03:34:16;;;;;;;4.97;2.88;;;;;;;;;;5053189;27;96960;-75
2022/08/07 03:36:44;;;;;;;4.47;2.80;;;;;;;;;;5033034;27;97267;-78
2022/08/07 03:39:11;;;;;;;8.27;2.63;;;;;;;;;;5031374;28;95589;-78
2022/08/07 03:41:42;;;;;;;3.83;2.77;;;;;;;;;;5030014;27;96961;-79
2022/08/07 03:44:16;;;;;;;6.25;2.90;;;;;;;;;;5046938;27;97395;-77
2022/08/07 03:47:00;;;;;;;4.70;2.60;;;;;;;;;;5013617;27;96945;-79
2022/08/07 03:49:37;;;;;;;6.32;2.75;;;;;;;;;;5015320;28;97458;-78
2022/08/07 03:52:06;;;;;;;5.07;2.38;;;;;;;;;;5016566;27;95334;-79
2022/08/07 03:54:48;;;;;;;4.40;2.83;;;;;;;;;;5048680;27;96829;-78
2022/08/07 03:57:23;;;;;;;4.53;2.75;;;;;;;;;;5014628;27;97397;-79
2022/08/07 04:00:10;;;;;;;4.88;2.67;;;;;;;;;;5031737;28;95235;-79
2022/08/07 04:02:37;;;;;;;8.38;2.70;;;;;;;;;;5031963;28;96753;-78
2022/08/07 04:05:06;;;;;;;6.68;3.50;;;;;;;;;;5031182;28;97804;-79
2022/08/07 04:07:34;;;;;;;5.55;2.42;;;;;;;;;;5018187;27;95622;-78
2022/08/07 04:10:08;;;;;;;3.55;2.50;;;;;;;;;;5040582;27;96456;-77
2022/08/07 04:12:45;;;;;;;4.05;2.30;;;;;;;;;;5020723;28;96509;-77
2022/08/07 04:15:13;;;;;;;4.45;2.50;;;;;;;;;;5017274;27;96891;-75
2022/08/07 04:17:41;;;;;;;5.13;2.50;;;;;;;;;;5034902;28;98652;-79
2022/08/07 04:20:27;;;;;;;7.43;2.30;;;;;;;;;;5030072;28;95318;-78
2022/08/07 04:22:56;;;;;;;4.25;2.30;;;;;;;;;;5033306;28;97627;-78
2022/08/07 04:25:27;;;;;;;5.60;2.23;;;;;;;;;;5034957;28;97366;-78
2022/08/07 04:27:54;;;;;;;6.20;2.40;;;;;;;;;;5014572;27;95549;-75
2022/08/07 04:30:26;;;;;;;4.33;2.73;;;;;;;;;;5019442;28;96945;-74
2022/08/07 04:33:12;;;;;;;4.78;2.53;;;;;;;;;;5033704;27;95566;-74
2022/08/07 19:50:37;;;;;;;7.88;3.28;;;;;;;;;;4986386;27;1314771;-79
2022/08/07 19:53:13;;;;;;;5.35;3.13;;;;;;;;;;5013241;28;97381;-79
2022/08/07 19:56:04;;;;;;;6.97;3.45;;;;;;;;;;5006146;28;95411;-79
2022/08/07 19:58:39;;;;;;;5.05;3.28;;;;;;;;;;5022959;28;96670;-79
2022/08/07 20:01:19;;;;;;;6.50;3.30;;;;;;;;;;5001621;28;97336;-77
2022/08/07 20:03:47;;;;;;;7.18;3.50;;;;;;;;;;5022121;28;95327;-78
2022/08/07 20:06:18;;;;;;;6.93;3.30;;;;;;;;;;5018612;28;97134;-78
2022/08/07 20:09:00;;;;;;;8.82;3.30;;;;;;;;;;5020021;28;97406;-79
2022/08/07 20:11:29;;;;;;;6.63;3.20;;;;;;;;;;5011462;28;95424;-79
2022/08/07 20:14:21;;;;;;;8.95;3.25;;;;;;;;;;5021217;28;99293;-76
2022/08/07 20:16:58;;;;;;;5.75;3.40;;;;;;;;;;5000688;28;96842;-79
2022/08/07 20:19:28;;;;;;;10.68;3.50;;;;;;;;;;5014119;28;96888;-79
2022/08/07 20:22:18;;;;;;;5.57;3.28;;;;;;;;;;5018702;28;99274;-78
2022/08/07 20:25:03;;;;;;;8.45;3.70;;;;;;;;;;5007025;28;95389;-78
2022/08/07 20:27:32;;;;;;;7.78;4.00;;;;;;;;;;5014265;28;96015;-78
2022/08/07 20:30:12;;;;;;;6.97;3.22;;;;;;;;;;5009356;28;97608;-78
2022/08/07 20:32:53;;;;;;;8.73;4.28;;;;;;;;;;5019897;28;95794;-78
2022/08/07 20:35:27;;;;;;;10.25;4.10;;;;;;;;;;5009391;28;95670;-78
2022/08/07 20:37:56;;;;;;;7.40;3.90;;;;;;;;;;5020431;28;95486;-77
2022/08/07 20:40:26;;;;;;;7.32;3.67;;;;;;;;;;5009324;28;96636;-76
2022/08/07 20:43:00;;;;;;;6.32;3.97;;;;;;;;;;5010247;28;97600;-78
2022/08/07 20:45:27;;;;;;;8.05;3.50;;;;;;;;;;5023322;28;95417;-78
2022/08/07 20:48:14;;;;;;;11.70;4.13;;;;;;;;;;5011072;28;97952;-77
2022/08/07 20:50:57;;;;;;;10.50;4.88;;;;;;;;;;5005110;28;97357;-78
2022/08/07 20:53:23;;;;;;;8.30;3.80;;;;;;;;;;5005503;28;95451;-77
2022/08/07 20:56:10;;;;;;;9.80;3.90;;;;;;;;;;5004980;28;98927;-74
2022/08/07 20:58:39;;;;;;;11.05;4.40;;;;;;;;;;5005699;28;97237;-77
2022/08/07 21:01:08;;;;;;;8.55;3.95;;;;;;;;;;4996078;28;97099;-74
2022/08/07 21:03:47;;;;;;;7.20;3.75;;;;;;;;;;5009105;28;96136;-76
2022/08/07 21:06:34;;;;;;;6.43;4.38;;;;;;;;;;4992207;28;95532;-76
2022/08/07 21:09:13;;;;;;;9.63;4.63;;;;;;;;;;4996749;28;97222;-78
2022/08/07 21:11:40;;;;;;;7.95;4.43;;;;;;;;;;5006296;28;98321;-77
2022/08/07 21:14:21;;;;;;;7.95;4.15;;;;;;;;;;4991606;28;95703;-77
2022/08/07 21:17:00;;;;;;;11.40;5.30;;;;;;;;;;4975113;28;97125;-77
2022/08/07 21:19:47;;;;;;;7.55;4.00;;;;;;;;;;4992434;28;99149;-77
2022/08/07 21:22:38;;;;;;;7.82;4.32;;;;;;;;;;4993774;28;95763;-79
2022/08/07 21:25:17;;;;;;;8.70;4.60;;;;;;;;;;4991974;28;96196;-78
2022/08/07 21:27:58;;;;;;;9.35;4.78;;;;;;;;;;4990133;28;95774;-78
2022/08/07 21:30:51;;;;;;;6.70;4.60;;;;;;;;;;4998790;28;96713;-74
2022/08/07 21:33:30;;;;;;;10.02;4.68;;;;;;;;;;4972052;28;96448;-76
2022/08/07 21:36:22;;;;;;;7.38;4.80;;;;;;;;;;4995934;28;95670;-77
2022/08/07 21:39:16;;;;;;;8.48;5.07;;;;;;;;;;4996193;28;96757;-77
2022/08/07 21:42:05;;;;;;;8.32;5.05;;;;;;;;;;4992491;28;99302;-78
2022/08/07 21:44:54;;;;;;;17.42;4.53;;;;;;;;;;4992631;28;95339;-78
2022/08/07 21:47:30;;;;;;;7.95;4.72;;;;;;;;;;4993550;28;96772;-78
2022/08/07 21:50:20;;;;;;;10.13;4.80;;;;;;;;;;4990898;28;95186;-73
2022/08/07 21:52:51;;;;;;;9.23;4.60;;;;;;;;;;4991566;28;96885;-76
2022/08/07 21:55:21;;;;;;;5.75;3.72;;;;;;;;;;4991233;28;97436;-75
2022/08/07 21:58:06;;;;;;;8.13;4.40;;;;;;;;;;4991174;28;95625;-74
2022/08/07 22:00:39;;;;;;;6.57;4.18;;;;;;;;;;4991556;28;96755;-74
2022/08/07 22:03:12;;;;;;;7.65;4.38;;;;;;;;;;4991872;28;97028;-74
2022/08/07 22:06:31;;;;;;;10.77;4.63;;;;;;;;;;5009077;28;95287;-74
2022/08/07 22:09:02;;;;;;;12.30;5.88;;;;;;;;;;4909604;28;96680;-76
2022/08/07 22:11:34;;;;;;;12.02;7.43;;;;;;;;;;4981766;28;95592;-74
2022/08/07 22:14:20;;;;;;;21.98;8.68;;;;;;;;;;4991854;28;98480;-74
2022/08/07 22:17:02;;;;;;;13.57;8.07;;;;;;;;;;4974950;28;97334;-74
2022/08/07 22:19:40;;;;;;;14.13;7.25;;;;;;;;;;4998056;28;95663;-75
2022/08/07 22:22:11;;;;;;;8.35;5.05;;;;;;;;;;5001709;28;96847;-75
2022/08/07 22:25:12;;;;;;;10.32;4.32;;;;;;;;;;5011467;28;97943;-74
2022/08/07 22:27:55;;;;;;;8.88;4.35;;;;;;;;;;5009613;28;95479;-74
2022/08/07 22:30:48;;;;;;;7.43;4.85;;;;;;;;;;5003787;28;97997;-75
2022/08/07 22:33:21;;;;;;;9.73;4.68;;;;;;;;;;4979176;28;97243;-73
2022/08/07 22:36:12;;;;;;;7.50;4.88;;;;;;;;;;4991077;28;98392;-74
2022/08/07 22:38:52;;;;;;;9.73;5.18;;;;;;;;;;4990546;28;97772;-74
2022/08/07 22:41:24;;;;;;;10.15;5.45;;;;;;;;;;4990865;28;95779;-77
2022/08/07 22:44:13;;;;;;;10.45;5.15;;;;;;;;;;4990679;28;98468;-76
2022/08/07 22:46:44;;;;;;;9.75;5.25;;;;;;;;;;4990348;28;97382;-74
2022/08/07 22:49:38;;;;;;;15.88;4.95;;;;;;;;;;4989344;28;96980;-74
2022/08/07 22:52:23;;;;;;;9.00;4.70;;;;;;;;;;4990913;28;96842;-74
2022/08/07 22:55:03;;;;;;;12.27;4.78;;;;;;;;;;4990908;28;97302;-78
2022/08/07 22:58:10;;;;;;;9.45;5.20;;;;;;;;;;4993715;28;95343;-75
2022/08/07 23:00:44;;;;;;;8.70;4.90;;;;;;;;;;4990296;28;98948;-78
2022/08/07 23:03:11;;;;;;;11.77;5.43;;;;;;;;;;4990977;28;95425;-78
2022/08/07 23:06:13;;;;;;;8.13;5.18;;;;;;;;;;5009637;28;96744;-78
2022/08/07 23:09:02;;;;;;;11.90;5.15;;;;;;;;;;4908392;28;97394;-77
2022/08/07 23:12:04;;;;;;;12.55;5.28;;;;;;;;;;4990654;28;95486;-77
2022/08/07 23:14:36;;;;;;;10.63;5.43;;;;;;;;;;4973410;28;96888;-77
2022/08/07 23:17:17;;;;;;;9.13;5.20;;;;;;;;;;5000198;28;97294;-76
2022/08/07 23:20:23;;;;;;;8.43;5.18;;;;;;;;;;5000285;28;95842;-78
2022/08/07 23:23:32;;;;;;;11.68;5.28;;;;;;;;;;4993694;28;98898;-73
2022/08/07 23:26:26;;;;;;;10.75;5.55;;;;;;;;;;4989846;28;95425;-74
2022/08/07 23:28:52;;;;;;;11.30;5.35;;;;;;;;;;4988987;28;96826;-73
2022/08/07 23:31:26;;;;;;;11.90;5.10;;;;;;;;;;5000382;28;97601;-73
2022/08/07 23:34:18;;;;;;;7.93;5.38;;;;;;;;;;5010385;28;96961;-75
2022/08/07 23:37:07;;;;;;;7.50;4.90;;;;;;;;;;5010587;28;96651;-75
2022/08/07 23:40:01;;;;;;;12.32;5.50;;;;;;;;;;4987567;28;96815;-74
2022/08/07 23:42:45;;;;;;;8.52;6.05;;;;;;;;;;4990008;28;95671;-73
2022/08/07 23:45:24;;;;;;;7.65;5.28;;;;;;;;;;4993673;28;96787;-74
2022/08/07 23:48:29;;;;;;;7.72;4.97;;;;;;;;;;4983611;28;99212;-74
2022/08/07 23:50:58;;;;;;;8.38;5.07;;;;;;;;;;4990139;28;96766;-75
2022/08/07 23:53:31;;;;;;;8.77;5.25;;;;;;;;;;4989665;28;97225;-74
2022/08/07 23:56:29;;;;;;;10.07;4.90;;;;;;;;;;4990074;28;95317;-76
2022/08/07 23:59:00;;;;;;;13.75;4.90;;;;;;;;;;4990011;28;96732;-74
